createdAt,value
2023-01-12T00:00:59.599Z,97.5
2023-01-12T00:02:05.867Z,97.5
2023-01-12T00:03:12.142Z,97.5
2023-01-12T00:04:18.427Z,97.5
2023-01-12T00:05:24.683Z,97.5
2023-01-12T00:06:30.955Z,97.5
2023-01-12T00:07:37.235Z,97.5
2023-01-12T00:08:43.504Z,97.5
2023-01-12T00:09:49.800Z,98
2023-01-12T00:10:56.051Z,98
2023-01-12T00:12:02.323Z,97.5
2023-01-12T00:13:08.598Z,97.5
2023-01-12T00:14:14.859Z,97.5
2023-01-12T00:15:20.149Z,97.5
2023-01-12T00:16:26.419Z,98
2023-01-12T00:17:32.692Z,98
2023-01-12T00:18:38.961Z,98
2023-01-12T00:19:45.241Z,98
2023-01-12T00:20:51.514Z,98
2023-01-12T00:21:57.781Z,98
2023-01-12T00:23:04.064Z,98
2023-01-12T00:24:10.322Z,98
2023-01-12T00:25:16.600Z,98
2023-01-12T00:26:22.870Z,98
2023-01-12T00:27:29.212Z,98
2023-01-12T00:28:35.414Z,98
2023-01-12T00:29:40.795Z,98
2023-01-12T00:30:46.976Z,98
2023-01-12T00:31:53.249Z,98.5
2023-01-12T00:32:59.602Z,98
2023-01-12T00:34:05.791Z,98
2023-01-12T00:35:12.086Z,98
2023-01-12T00:36:18.338Z,98
2023-01-12T00:37:24.625Z,98
2023-01-12T00:38:30.880Z,98.5
2023-01-12T00:39:37.142Z,98.5
2023-01-12T00:40:43.430Z,98.5
2023-01-12T00:41:49.687Z,98.5
2023-01-12T00:42:55.965Z,98
2023-01-12T00:44:01.256Z,98.5
2023-01-12T00:45:07.532Z,98.5
2023-01-12T00:46:13.797Z,98
2023-01-12T00:47:20.070Z,98
2023-01-12T00:48:26.394Z,98
2023-01-12T00:49:32.617Z,98
2023-01-12T00:50:38.887Z,98
2023-01-12T00:51:45.153Z,98
2023-01-12T00:52:51.441Z,97.5
2023-01-12T00:53:57.697Z,97.5
2023-01-12T00:55:03.964Z,97.5
2023-01-12T00:56:10.243Z,97.5
2023-01-12T00:57:16.515Z,97.5
2023-01-12T00:58:21.800Z,97.5
2023-01-12T00:59:28.071Z,97.5
2023-01-12T01:00:34.363Z,97.5
2023-01-12T01:01:40.617Z,97.5
2023-01-12T01:02:46.894Z,97.5
2023-01-12T01:03:53.163Z,97.5
2023-01-12T01:04:59.488Z,97.5
2023-01-12T01:06:05.726Z,97.5
2023-01-12T01:07:11.975Z,97
2023-01-12T01:08:18.273Z,97
2023-01-12T01:09:24.530Z,96.5
2023-01-12T01:10:30.788Z,96.5
2023-01-12T01:11:37.060Z,96.5
2023-01-12T01:12:42.349Z,96.5
2023-01-12T01:13:48.622Z,96
2023-01-12T01:14:54.913Z,96
2023-01-12T01:16:01.191Z,96
2023-01-12T01:17:07.442Z,96
2023-01-12T01:18:13.724Z,96
2023-01-12T01:19:19.982Z,95.5
2023-01-12T01:20:26.268Z,95.5
2023-01-12T01:21:32.532Z,95.5
2023-01-12T01:22:38.810Z,95.5
2023-01-12T01:23:45.077Z,95.5
2023-01-12T01:24:51.350Z,95
2023-01-12T01:25:57.630Z,95
2023-01-12T01:27:02.944Z,95
2023-01-12T01:28:08.208Z,95
2023-01-12T01:29:13.505Z,95
2023-01-12T01:30:18.793Z,95
2023-01-12T01:31:25.081Z,95
2023-01-12T01:32:31.353Z,95
2023-01-12T01:33:37.615Z,95
2023-01-12T01:34:43.881Z,95
2023-01-12T01:35:50.153Z,95
2023-01-12T01:36:56.455Z,95
2023-01-12T01:38:02.716Z,95
2023-01-12T01:39:08.980Z,94.5
2023-01-12T01:40:15.249Z,94.5
2023-01-12T01:41:21.527Z,94.5
2023-01-12T01:42:27.795Z,94.5
2023-01-12T01:43:34.083Z,94.5
2023-01-12T01:44:39.364Z,94
2023-01-12T01:45:45.643Z,94
2023-01-12T01:46:51.900Z,94
2023-01-12T01:47:58.173Z,94.5
2023-01-12T01:49:04.438Z,94
2023-01-12T01:50:10.718Z,94
2023-01-12T01:51:16.993Z,94
2023-01-12T01:52:23.256Z,94
2023-01-12T01:53:29.526Z,94
2023-01-12T01:54:35.801Z,94
2023-01-12T01:55:42.082Z,94
2023-01-12T01:56:48.348Z,94
2023-01-12T01:57:54.609Z,94
2023-01-12T01:58:59.913Z,94
2023-01-12T02:00:06.184Z,94
2023-01-12T02:01:12.437Z,94
2023-01-12T02:02:18.747Z,94
2023-01-12T02:03:24.018Z,94
2023-01-12T02:04:29.318Z,94
2023-01-12T02:05:35.581Z,94.5
2023-01-12T02:06:40.883Z,94
2023-01-12T02:07:46.210Z,94
2023-01-12T02:08:52.459Z,94
2023-01-12T02:09:58.712Z,94
2023-01-12T02:11:04.984Z,94
2023-01-12T02:12:11.266Z,94
2023-01-12T02:13:17.538Z,94
2023-01-12T02:14:23.802Z,94
2023-01-12T02:15:30.084Z,94
2023-01-12T02:16:36.362Z,94
2023-01-12T02:17:42.645Z,94
2023-01-12T02:18:48.891Z,94
2023-01-12T02:19:55.174Z,94
2023-01-12T02:21:01.451Z,94
2023-01-12T02:22:06.731Z,94
2023-01-12T02:23:13.005Z,94
2023-01-12T02:24:19.274Z,94
2023-01-12T02:25:25.575Z,93.5
2023-01-12T02:26:31.814Z,93.5
2023-01-12T02:27:38.083Z,93.5
2023-01-12T02:28:44.355Z,93.5
2023-01-12T02:29:50.704Z,93.5
2023-01-12T02:30:56.897Z,93.5
2023-01-12T02:32:03.227Z,93
2023-01-12T02:33:09.459Z,93
2023-01-12T02:34:15.714Z,93
2023-01-12T02:35:22.004Z,93
2023-01-12T02:36:27.281Z,93
2023-01-12T02:37:33.658Z,93
2023-01-12T02:38:39.823Z,93
2023-01-12T02:39:46.099Z,93
2023-01-12T02:40:52.384Z,92.5
2023-01-12T02:41:58.647Z,92.5
2023-01-12T02:43:04.942Z,92.5
2023-01-12T02:44:11.242Z,92.5
2023-01-12T02:45:17.457Z,92.5
2023-01-12T02:46:23.742Z,93
2023-01-12T02:47:30.005Z,93
2023-01-12T02:48:36.272Z,93
2023-01-12T02:49:42.552Z,93
2023-01-12T02:50:47.829Z,93
2023-01-12T02:51:54.102Z,93
2023-01-12T02:53:00.381Z,92.5
2023-01-12T02:54:06.671Z,92.5
2023-01-12T02:55:12.921Z,92.5
2023-01-12T02:56:19.191Z,93
2023-01-12T02:57:25.469Z,93
2023-01-12T02:58:31.967Z,93
2023-01-12T02:59:38.014Z,93
2023-01-12T03:00:44.284Z,93
2023-01-12T03:01:50.558Z,93
2023-01-12T03:02:56.831Z,93
2023-01-12T03:04:03.132Z,93
2023-01-12T03:05:08.390Z,93
2023-01-12T03:06:14.680Z,93
2023-01-12T03:07:20.931Z,93
2023-01-12T03:08:27.259Z,93.5
2023-01-12T03:09:33.475Z,93
2023-01-12T03:10:39.771Z,93
2023-01-12T03:11:46.033Z,93
2023-01-12T03:12:52.292Z,93.5
2023-01-12T03:13:57.585Z,93.5
2023-01-12T03:15:03.909Z,93.5
2023-01-12T03:16:10.138Z,93.5
2023-01-12T03:17:16.404Z,93.5
2023-01-12T03:18:22.676Z,93.5
2023-01-12T03:19:28.941Z,93.5
2023-01-12T03:20:35.265Z,94
2023-01-12T03:21:41.499Z,94
2023-01-12T03:22:47.782Z,94
2023-01-12T03:23:54.036Z,94
2023-01-12T03:25:00.320Z,94
2023-01-12T03:26:06.596Z,94
2023-01-12T03:27:12.857Z,94
2023-01-12T03:28:18.145Z,94
2023-01-12T03:29:24.411Z,94
2023-01-12T03:30:30.686Z,94
2023-01-12T03:31:36.995Z,94
2023-01-12T03:32:43.232Z,94
2023-01-12T03:33:49.502Z,94
2023-01-12T03:34:55.775Z,94
2023-01-12T03:36:02.060Z,94
2023-01-12T03:37:08.320Z,94
2023-01-12T03:38:14.602Z,94
2023-01-12T03:39:20.889Z,94
2023-01-12T03:40:27.131Z,94
2023-01-12T03:41:33.413Z,94
2023-01-12T03:42:38.723Z,94
2023-01-12T03:43:44.973Z,94
2023-01-12T03:44:51.240Z,94
2023-01-12T03:45:57.559Z,94
2023-01-12T03:47:03.786Z,94
2023-01-12T03:48:10.093Z,94
2023-01-12T03:49:16.325Z,94
2023-01-12T03:50:22.607Z,94
2023-01-12T03:51:28.897Z,94
2023-01-12T03:52:35.144Z,94
2023-01-12T03:53:41.420Z,94
2023-01-12T03:54:47.694Z,94
2023-01-12T03:55:53.964Z,94
2023-01-12T03:56:59.281Z,94
2023-01-12T03:58:05.576Z,94
2023-01-12T03:59:11.793Z,94
2023-01-12T04:00:18.087Z,94
2023-01-12T04:01:24.345Z,94
2023-01-12T04:02:30.618Z,94
2023-01-12T04:03:36.888Z,94.5
2023-01-12T04:04:43.163Z,94
2023-01-12T04:05:49.427Z,94
2023-01-12T04:06:55.711Z,94.5
2023-01-12T04:08:01.978Z,94.5
2023-01-12T04:09:08.238Z,94.5
2023-01-12T04:10:14.516Z,94
2023-01-12T04:11:19.802Z,94
2023-01-12T04:12:26.076Z,94
2023-01-12T04:13:32.353Z,94
2023-01-12T04:14:38.625Z,94
2023-01-12T04:15:44.913Z,94
2023-01-12T04:16:51.163Z,94
2023-01-12T04:17:57.441Z,94
2023-01-12T04:19:03.716Z,94
2023-01-12T04:20:09.992Z,94
2023-01-12T04:21:16.259Z,93.5
2023-01-12T04:22:22.533Z,93.5
2023-01-12T04:23:28.805Z,93.5
2023-01-12T04:24:35.129Z,94
2023-01-12T04:25:40.363Z,94
2023-01-12T04:26:46.631Z,93.5
2023-01-12T04:27:52.908Z,93.5
2023-01-12T04:28:59.175Z,94
2023-01-12T04:30:05.453Z,94
2023-01-12T04:31:11.713Z,93.5
2023-01-12T04:32:18.014Z,93.5
2023-01-12T04:33:24.324Z,93.5
2023-01-12T04:34:30.539Z,93.5
2023-01-12T04:35:36.816Z,93.5
2023-01-12T04:36:43.083Z,93.5
2023-01-12T04:37:49.357Z,93.5
2023-01-12T04:38:55.631Z,94
2023-01-12T04:40:00.921Z,94
2023-01-12T04:41:07.185Z,94
2023-01-12T04:42:13.456Z,94
2023-01-12T04:43:19.797Z,94
2023-01-12T04:44:26.010Z,93.5
2023-01-12T04:45:32.276Z,93.5
2023-01-12T04:46:38.552Z,93.5
2023-01-12T04:47:44.823Z,93.5
2023-01-12T04:48:51.168Z,93.5
2023-01-12T04:49:57.386Z,93.5
2023-01-12T04:51:03.638Z,93.5
2023-01-12T04:52:09.943Z,93
2023-01-12T04:53:16.322Z,93
2023-01-12T04:55:27.790Z,93.5
2023-01-12T04:56:34.015Z,93.5
2023-01-12T04:57:40.299Z,93
2023-01-12T04:58:46.570Z,92.5
2023-01-12T04:59:52.851Z,93
2023-01-12T05:00:59.107Z,92.5
2023-01-12T05:02:05.372Z,92.5
2023-01-12T05:03:11.644Z,92.5
2023-01-12T05:04:17.913Z,92.5
2023-01-12T05:05:24.256Z,92.5
2023-01-12T05:06:30.487Z,92
2023-01-12T05:07:36.742Z,92
2023-01-12T05:08:42.028Z,92
2023-01-12T05:09:48.355Z,91.5
2023-01-12T05:12:00.854Z,92
2023-01-12T05:13:07.121Z,91
2023-01-12T05:14:13.450Z,91
2023-01-12T05:15:19.668Z,91.5
2023-01-12T05:16:25.930Z,92
2023-01-12T05:17:32.207Z,92
2023-01-12T05:18:38.530Z,91
2023-01-12T05:19:44.745Z,91
2023-01-12T05:20:51.020Z,90.5
2023-01-12T05:21:57.291Z,91
2023-01-12T05:23:02.586Z,91
2023-01-12T05:24:08.859Z,91.5
2023-01-12T05:25:15.144Z,91.5
2023-01-12T05:26:21.401Z,91.5
2023-01-12T05:27:27.673Z,91.5
2023-01-12T05:28:33.946Z,91
2023-01-12T05:29:40.215Z,91
2023-01-12T05:30:46.586Z,91.5
2023-01-12T05:31:52.760Z,92
2023-01-12T05:32:59.031Z,92
2023-01-12T05:34:05.299Z,92
2023-01-12T05:35:11.576Z,92
2023-01-12T05:36:17.859Z,92
2023-01-12T05:37:23.139Z,92
2023-01-12T05:38:29.482Z,91
2023-01-12T05:39:35.695Z,91
2023-01-12T05:40:41.972Z,91
2023-01-12T05:41:48.229Z,91
2023-01-12T05:42:54.502Z,90.5
2023-01-12T05:44:00.775Z,90.5
2023-01-12T05:45:07.046Z,91
2023-01-12T05:46:13.313Z,91.5
2023-01-12T05:47:19.586Z,91.5
2023-01-12T05:48:25.856Z,91.5
2023-01-12T05:49:32.166Z,91.5
2023-01-12T05:50:38.399Z,92
2023-01-12T05:51:43.694Z,92
2023-01-12T05:52:49.978Z,91.5
2023-01-12T05:53:56.252Z,91.5
2023-01-12T05:55:02.507Z,91
2023-01-12T05:56:08.787Z,91.5
2023-01-12T05:57:15.168Z,91.5
2023-01-12T05:58:21.326Z,91.5
2023-01-12T05:59:27.589Z,91
2023-01-12T06:00:33.890Z,90.5
2023-01-12T06:01:40.144Z,90.5
2023-01-12T06:02:46.412Z,91
2023-01-12T06:03:52.712Z,90
2023-01-12T06:04:58.958Z,90.5
2023-01-12T06:06:04.245Z,90.5
2023-01-12T06:07:10.523Z,90.5
2023-01-12T06:08:16.792Z,90.5
2023-01-12T06:09:23.075Z,91
2023-01-12T06:10:29.341Z,90.5
2023-01-12T06:11:35.625Z,90.5
2023-01-12T06:12:41.875Z,90.5
2023-01-12T06:13:48.174Z,91
2023-01-12T06:14:53.461Z,90.5
2023-01-12T06:15:58.758Z,90.5
2023-01-12T06:18:10.322Z,90.5
2023-01-12T06:19:15.624Z,90
2023-01-12T06:20:20.909Z,90.5
2023-01-12T06:21:27.213Z,90
2023-01-12T06:22:33.449Z,90
2023-01-12T06:23:39.738Z,90.5
2023-01-12T06:24:45.994Z,90
2023-01-12T06:25:52.265Z,90
2023-01-12T06:26:58.547Z,89.5
2023-01-12T06:28:04.846Z,89.5
2023-01-12T06:29:11.077Z,89.5
2023-01-12T06:30:17.351Z,90
2023-01-12T06:31:23.644Z,90
2023-01-12T06:32:29.892Z,89.5
2023-01-12T06:33:36.191Z,89
2023-01-12T06:34:42.527Z,90
2023-01-12T06:35:47.733Z,89
2023-01-12T06:36:54.005Z,89
2023-01-12T06:38:00.271Z,89.5
2023-01-12T06:39:06.597Z,89
2023-01-12T06:40:12.818Z,88.5
2023-01-12T06:41:19.092Z,88.5
2023-01-12T06:42:25.361Z,88.5
2023-01-12T06:43:31.638Z,89
2023-01-12T06:44:37.938Z,88.5
2023-01-12T06:45:44.185Z,88.5
2023-01-12T06:46:50.447Z,89.5
2023-01-12T06:47:56.745Z,89
2023-01-12T06:49:02.997Z,88.5
2023-01-12T06:50:08.284Z,88.5
2023-01-12T06:51:14.556Z,88
2023-01-12T06:52:20.832Z,88.5
2023-01-12T06:53:27.130Z,88.5
2023-01-12T06:54:33.371Z,89
2023-01-12T06:55:38.672Z,88.5
2023-01-12T06:56:44.936Z,88.5
2023-01-12T06:57:51.215Z,88.5
2023-01-12T06:58:57.487Z,88
2023-01-12T07:00:03.752Z,88
2023-01-12T07:01:10.036Z,88.5
2023-01-12T07:02:16.345Z,87.5
2023-01-12T07:03:22.573Z,88
2023-01-12T07:04:28.844Z,88
2023-01-12T07:05:35.116Z,87.5
2023-01-12T07:06:41.379Z,87
2023-01-12T07:07:47.663Z,87.5
2023-01-12T07:08:53.936Z,87.5
2023-01-12T07:09:59.223Z,87.5
2023-01-12T07:11:05.520Z,87
2023-01-12T07:12:11.769Z,87
2023-01-12T07:13:18.087Z,87
2023-01-12T07:14:24.306Z,86.5
2023-01-12T07:15:30.591Z,86.5
2023-01-12T07:16:36.913Z,86
2023-01-12T07:17:43.134Z,85.5
2023-01-12T07:18:49.400Z,86
2023-01-12T07:19:55.763Z,86
2023-01-12T07:21:02.000Z,86
2023-01-12T07:22:08.231Z,86
2023-01-12T07:23:14.493Z,85.5
2023-01-12T07:24:19.780Z,86
2023-01-12T07:25:26.062Z,85.5
2023-01-12T07:26:32.316Z,86
2023-01-12T07:27:38.597Z,86
2023-01-12T07:28:44.868Z,86.5
2023-01-12T07:29:50.165Z,87
2023-01-12T07:30:55.451Z,86.5
2023-01-12T07:32:01.729Z,86
2023-01-12T07:33:07.998Z,86.5
2023-01-12T07:34:14.271Z,85.5
2023-01-12T07:35:20.549Z,85.5
2023-01-12T07:36:26.815Z,85.5
2023-01-12T07:37:33.088Z,86
2023-01-12T07:38:39.377Z,85.5
2023-01-12T07:40:51.926Z,85
2023-01-12T07:41:57.207Z,85
2023-01-12T07:43:02.490Z,86
2023-01-12T07:44:08.758Z,85
2023-01-12T07:45:15.031Z,84.5
2023-01-12T07:46:21.303Z,84.5
2023-01-12T07:47:27.574Z,84
2023-01-12T07:48:33.858Z,85
2023-01-12T07:49:40.118Z,85
2023-01-12T07:50:46.443Z,84.5
2023-01-12T07:51:52.684Z,84.5
2023-01-12T07:52:58.989Z,84.5
2023-01-12T07:54:05.209Z,84.5
2023-01-12T07:55:11.483Z,85
2023-01-12T07:56:17.783Z,84.5
2023-01-12T07:57:24.024Z,84.5
2023-01-12T07:58:29.312Z,85.5
2023-01-12T07:59:35.645Z,85
2023-01-12T08:00:41.864Z,84.5
2023-01-12T08:01:48.130Z,84.5
2023-01-12T08:02:54.400Z,84.5
2023-01-12T08:04:00.677Z,84
2023-01-12T08:05:06.044Z,84.5
2023-01-12T08:06:12.256Z,84
2023-01-12T08:07:17.592Z,84
2023-01-12T08:08:23.830Z,85
2023-01-12T08:09:30.147Z,85
2023-01-12T08:10:36.363Z,84.5
2023-01-12T08:11:42.654Z,84.5
2023-01-12T08:12:48.889Z,84
2023-01-12T08:13:55.190Z,85
2023-01-12T08:15:01.453Z,84.5
2023-01-12T08:16:07.705Z,84.5
2023-01-12T08:17:13.007Z,84
2023-01-12T08:18:18.436Z,84.5
2023-01-12T08:19:24.622Z,85
2023-01-12T08:20:30.846Z,84
2023-01-12T08:21:37.111Z,84
2023-01-12T08:22:43.430Z,85
2023-01-12T08:23:49.686Z,84.5
2023-01-12T08:24:55.935Z,84.5
2023-01-12T08:26:02.282Z,83.5
2023-01-12T08:27:08.479Z,84
2023-01-12T08:28:14.763Z,83
2023-01-12T08:30:27.288Z,82.5
2023-01-12T08:31:33.602Z,83
2023-01-12T08:32:38.871Z,83.5
2023-01-12T08:33:45.153Z,84
2023-01-12T08:34:51.423Z,82
2023-01-12T08:35:57.703Z,82.5
2023-01-12T08:37:04.050Z,83.5
2023-01-12T08:38:10.405Z,82
2023-01-12T08:39:16.552Z,81.5
2023-01-12T08:40:22.841Z,82.5
2023-01-12T08:41:29.093Z,81
2023-01-12T08:42:35.295Z,82.5
2023-01-12T08:43:41.586Z,81
2023-01-12T08:44:47.956Z,82
2023-01-12T08:45:54.115Z,81.5
2023-01-12T08:46:59.403Z,81
2023-01-12T08:48:05.752Z,81
2023-01-12T08:49:11.985Z,80.5
2023-01-12T08:50:18.321Z,81
2023-01-12T08:51:24.542Z,81
2023-01-12T08:52:30.784Z,81.5
2023-01-12T08:53:37.035Z,81.5
2023-01-12T08:54:43.337Z,81.5
2023-01-12T08:55:49.627Z,80.5
2023-01-12T08:56:55.991Z,81
2023-01-12T08:58:02.266Z,81.5
2023-01-12T08:59:08.436Z,80.5
2023-01-12T09:00:14.807Z,81
2023-01-12T09:01:20.169Z,80
2023-01-12T09:02:26.239Z,81
2023-01-12T09:03:32.503Z,79.5
2023-01-12T09:04:38.792Z,80.5
2023-01-12T09:05:45.067Z,79.5
2023-01-12T09:06:51.318Z,80
2023-01-12T09:07:57.595Z,79.5
2023-01-12T09:09:03.879Z,79
2023-01-12T09:10:10.148Z,79.5
2023-01-12T09:11:16.408Z,81
2023-01-12T09:12:22.677Z,79
2023-01-12T09:13:28.955Z,78.5
2023-01-12T09:14:35.229Z,80
2023-01-12T09:15:41.500Z,80
2023-01-12T09:16:46.815Z,79
2023-01-12T09:17:53.222Z,79.5
2023-01-12T09:18:59.346Z,80
2023-01-12T09:20:05.599Z,79
2023-01-12T09:21:11.907Z,80
2023-01-12T09:22:18.178Z,79.5
2023-01-12T09:23:24.421Z,79
2023-01-12T09:24:30.689Z,80
2023-01-12T09:25:36.961Z,80.5
2023-01-12T09:26:43.245Z,79.5
2023-01-12T09:27:49.517Z,81
2023-01-12T09:28:55.777Z,81
2023-01-12T09:30:02.057Z,80
2023-01-12T09:31:07.338Z,81
2023-01-12T09:32:13.614Z,79
2023-01-12T09:33:20.045Z,80
2023-01-12T09:34:26.312Z,79.5
2023-01-12T09:35:32.431Z,80
2023-01-12T09:36:38.845Z,79.5
2023-01-12T09:37:44.968Z,79
2023-01-12T09:38:51.240Z,79
2023-01-12T09:39:57.513Z,80
2023-01-12T09:41:03.784Z,80
2023-01-12T09:42:10.094Z,79
2023-01-12T09:43:16.326Z,79
2023-01-12T09:44:22.611Z,80
2023-01-12T09:45:27.886Z,79.5
2023-01-12T09:46:34.296Z,80
2023-01-12T09:47:40.434Z,80
2023-01-12T09:48:46.791Z,80.5
2023-01-12T09:49:52.986Z,81
2023-01-12T09:50:58.283Z,80.5
2023-01-12T09:53:09.850Z,80
2023-01-12T09:54:16.107Z,80
2023-01-12T09:55:22.381Z,80.5
2023-01-12T09:56:28.674Z,81
2023-01-12T09:57:34.940Z,80
2023-01-12T09:58:41.211Z,80.5
2023-01-12T09:59:46.496Z,80.5
2023-01-12T10:00:51.815Z,80.5
2023-01-12T10:01:58.114Z,81
2023-01-12T10:03:04.494Z,80.5
2023-01-12T10:04:10.606Z,80
2023-01-12T10:05:16.908Z,81
2023-01-12T10:06:23.208Z,79.5
2023-01-12T10:07:29.428Z,80.5
2023-01-12T10:08:35.696Z,79
2023-01-12T10:09:41.963Z,80.5
2023-01-12T10:10:48.237Z,80
2023-01-12T10:11:54.517Z,79.5
2023-01-12T10:13:00.883Z,79.5
2023-01-12T10:14:07.055Z,80
2023-01-12T10:15:12.342Z,79.5
2023-01-12T10:16:18.619Z,79.5
2023-01-12T10:17:24.897Z,79
2023-01-12T10:18:31.162Z,79.5
2023-01-12T10:19:37.483Z,79.5
2023-01-12T10:20:43.704Z,81
2023-01-12T10:21:49.969Z,81
2023-01-12T10:22:56.280Z,80.5
2023-01-12T10:24:02.555Z,80
2023-01-12T10:25:08.786Z,80
2023-01-12T10:26:15.072Z,79
2023-01-12T10:27:21.343Z,79.5
2023-01-12T10:28:27.615Z,80
2023-01-12T10:29:32.893Z,79
2023-01-12T10:30:39.170Z,79
2023-01-12T10:31:45.438Z,79.5
2023-01-12T10:32:51.727Z,79
2023-01-12T10:33:57.993Z,80.5
2023-01-12T10:35:04.254Z,78
2023-01-12T10:36:10.529Z,79.5
2023-01-12T10:37:15.821Z,78
2023-01-12T10:38:22.107Z,78.5
2023-01-12T10:39:28.362Z,79.5
2023-01-12T10:40:34.623Z,78.5
2023-01-12T10:41:40.924Z,78.5
2023-01-12T10:42:47.186Z,78.5
2023-01-12T10:43:53.460Z,78
2023-01-12T10:44:59.731Z,79.5
2023-01-12T10:46:06.171Z,77.5
2023-01-12T10:47:12.406Z,78
2023-01-12T10:48:18.541Z,79.5
2023-01-12T10:49:24.817Z,78.5
2023-01-12T10:50:31.081Z,79
2023-01-12T10:51:36.371Z,78
2023-01-12T10:52:42.651Z,77.5
2023-01-12T10:53:48.972Z,77.5
2023-01-12T10:54:55.201Z,77.5
2023-01-12T10:56:01.462Z,78
2023-01-12T10:57:07.734Z,77.5
2023-01-12T10:58:14.023Z,77
2023-01-12T10:59:20.283Z,78
2023-01-12T11:00:26.548Z,78.5
2023-01-12T11:01:32.812Z,77.5
2023-01-12T11:02:39.098Z,78
2023-01-12T11:03:44.402Z,77
2023-01-12T11:04:49.689Z,78
2023-01-12T11:05:54.980Z,78.5
2023-01-12T11:07:00.279Z,78
2023-01-12T11:08:06.620Z,78
2023-01-12T11:09:12.837Z,78
2023-01-12T11:10:19.080Z,77.5
2023-01-12T11:11:25.358Z,78
2023-01-12T11:12:31.636Z,77
2023-01-12T11:13:37.909Z,77
2023-01-12T11:14:44.178Z,76.5
2023-01-12T11:15:50.452Z,77
2023-01-12T11:16:56.723Z,77.5
2023-01-12T11:18:03.011Z,78.5
2023-01-12T11:19:09.265Z,78.5
2023-01-12T11:20:15.531Z,77.5
2023-01-12T11:21:20.824Z,77.5
2023-01-12T11:22:27.093Z,78
2023-01-12T11:23:33.364Z,78
2023-01-12T11:24:39.636Z,78
2023-01-12T11:25:45.903Z,79
2023-01-12T11:26:52.182Z,77.5
2023-01-12T11:27:58.450Z,78
2023-01-12T11:29:03.747Z,77.5
2023-01-12T11:30:09.038Z,77
2023-01-12T11:31:15.335Z,76.5
2023-01-12T11:32:21.582Z,76
2023-01-12T11:33:26.922Z,78
2023-01-12T11:34:32.197Z,76.5
2023-01-12T11:35:38.450Z,78
2023-01-12T11:36:44.717Z,77.5
2023-01-12T11:37:50.992Z,77.5
2023-01-12T11:38:57.260Z,78
2023-01-12T11:40:03.529Z,78
2023-01-12T11:41:09.801Z,77
2023-01-12T11:42:16.075Z,76.5
2023-01-12T11:43:22.351Z,77.5
2023-01-12T11:44:28.620Z,77.5
2023-01-12T11:45:34.895Z,76
2023-01-12T11:46:41.164Z,76.5
2023-01-12T11:47:47.441Z,75.5
2023-01-12T11:48:52.727Z,76.5
2023-01-12T11:49:58.993Z,75
2023-01-12T11:51:05.269Z,75.5
2023-01-12T11:52:11.543Z,75.5
2023-01-12T11:53:17.828Z,75.5
2023-01-12T11:54:24.082Z,74.5
2023-01-12T11:55:30.361Z,75.5
2023-01-12T11:56:36.626Z,75
2023-01-12T11:57:42.895Z,74.5
2023-01-12T11:58:49.171Z,75.5
2023-01-12T11:59:55.456Z,74.5
2023-01-12T12:01:01.722Z,75
2023-01-12T12:02:08.022Z,74.5
2023-01-12T12:03:13.273Z,75
2023-01-12T12:04:19.551Z,74
2023-01-12T12:05:25.816Z,74
2023-01-12T12:06:32.101Z,74
2023-01-12T12:07:38.363Z,74.5
2023-01-12T12:08:44.634Z,75.5
2023-01-12T12:09:50.928Z,74.5
2023-01-12T12:10:57.177Z,74
2023-01-12T12:12:03.444Z,74
2023-01-12T12:13:09.715Z,74
2023-01-12T12:14:16.013Z,74
2023-01-12T12:15:22.261Z,74
2023-01-12T12:16:28.537Z,74
2023-01-12T12:17:33.869Z,74.5
2023-01-12T12:18:40.153Z,75
2023-01-12T12:19:46.374Z,74.5
2023-01-12T12:20:52.650Z,74.5
2023-01-12T12:21:58.918Z,74
2023-01-12T12:23:05.201Z,74
2023-01-12T12:24:11.458Z,74.5
2023-01-12T12:25:17.732Z,74.5
2023-01-12T12:26:24.010Z,73.5
2023-01-12T12:27:30.272Z,73.5
2023-01-12T12:28:36.551Z,73.5
2023-01-12T12:29:42.818Z,75.5
2023-01-12T12:30:49.094Z,74.5
2023-01-12T12:31:54.421Z,74
2023-01-12T12:33:00.651Z,75
2023-01-12T12:34:05.944Z,74
2023-01-12T12:35:11.247Z,75
2023-01-12T12:36:17.510Z,75
2023-01-12T12:37:22.827Z,75
2023-01-12T12:38:28.103Z,76
2023-01-12T12:39:34.391Z,74.5
2023-01-12T12:40:40.645Z,75.5
2023-01-12T12:41:46.983Z,76.5
2023-01-12T12:42:53.181Z,76
2023-01-12T12:43:59.462Z,76
2023-01-12T12:45:05.757Z,76
2023-01-12T12:46:12.143Z,75.5
2023-01-12T12:47:18.270Z,76
2023-01-12T12:48:24.563Z,76
2023-01-12T12:49:30.814Z,74.5
2023-01-12T12:50:37.095Z,75
2023-01-12T12:51:43.365Z,74.5
2023-01-12T12:52:48.652Z,75
2023-01-12T12:53:54.926Z,75
2023-01-12T12:55:01.194Z,75.5
2023-01-12T12:56:07.465Z,75
2023-01-12T12:57:13.732Z,75
2023-01-12T12:58:20.019Z,75.5
2023-01-12T12:59:26.290Z,76
2023-01-12T13:00:32.561Z,76.5
2023-01-12T13:01:38.827Z,75.5
2023-01-12T13:02:45.106Z,75
2023-01-12T13:03:51.373Z,75.5
2023-01-12T13:04:57.674Z,75.5
2023-01-12T13:06:03.913Z,75.5
2023-01-12T13:07:09.202Z,75
2023-01-12T13:08:15.474Z,74.5
2023-01-12T13:09:21.745Z,75
2023-01-12T13:10:28.017Z,75
2023-01-12T13:11:34.290Z,74.5
2023-01-12T13:12:40.559Z,74.5
2023-01-12T13:13:46.849Z,75
2023-01-12T13:14:53.117Z,77
2023-01-12T13:15:59.421Z,74.5
2023-01-12T13:17:05.661Z,75
2023-01-12T13:18:11.909Z,74.5
2023-01-12T13:19:18.224Z,75.5
2023-01-12T13:20:24.667Z,75
2023-01-12T13:21:29.768Z,75
2023-01-12T13:22:36.022Z,74.5
2023-01-12T13:23:42.301Z,74.5
2023-01-12T13:24:48.570Z,75.5
2023-01-12T13:25:54.880Z,75.5
2023-01-12T13:27:01.118Z,76
2023-01-12T13:28:07.387Z,75.5
2023-01-12T13:29:13.659Z,76
2023-01-12T13:30:19.931Z,74.5
2023-01-12T13:31:26.200Z,76
2023-01-12T13:32:32.470Z,74.5
2023-01-12T13:33:38.744Z,75.5
2023-01-12T13:34:45.020Z,74.5
2023-01-12T13:35:50.307Z,74.5
2023-01-12T13:36:56.580Z,76
2023-01-12T13:38:02.846Z,75
2023-01-12T13:39:09.117Z,75.5
2023-01-12T13:40:15.393Z,76.5
2023-01-12T13:41:21.679Z,74
2023-01-12T13:42:27.932Z,74.5
2023-01-12T13:43:34.265Z,74.5
2023-01-12T13:44:40.513Z,75.5
2023-01-12T13:45:46.885Z,74
2023-01-12T13:46:53.131Z,75.5
2023-01-12T13:47:59.311Z,74
2023-01-12T13:49:05.571Z,75
2023-01-12T13:50:10.861Z,74.5
2023-01-12T13:51:17.135Z,75.5
2023-01-12T13:52:23.395Z,75.5
2023-01-12T13:53:29.674Z,74
2023-01-12T13:54:36.141Z,76
2023-01-12T13:55:42.252Z,74.5
2023-01-12T13:56:48.483Z,74.5
2023-01-12T13:57:54.770Z,76
2023-01-12T13:59:01.035Z,76
2023-01-12T14:01:13.639Z,75
2023-01-12T14:02:19.886Z,75
2023-01-12T14:03:26.126Z,75
2023-01-12T14:04:31.397Z,76
2023-01-12T14:05:37.673Z,75.5
2023-01-12T14:06:43.967Z,74.5
2023-01-12T14:07:50.226Z,75.5
2023-01-12T14:08:56.529Z,74.5
2023-01-12T14:10:03.714Z,75.5
2023-01-12T14:11:09.054Z,75.5
2023-01-12T14:12:15.373Z,76
2023-01-12T14:13:21.581Z,76.5
2023-01-12T14:14:27.871Z,76
2023-01-12T14:15:34.272Z,76
2023-01-12T14:16:40.570Z,76.5
2023-01-12T14:17:46.888Z,77
2023-01-12T14:18:52.104Z,76
2023-01-12T14:19:58.412Z,76.5
2023-01-12T14:21:04.670Z,77
2023-01-12T14:22:10.931Z,76.5
2023-01-12T14:23:17.188Z,76.5
2023-01-12T14:24:23.500Z,76.5
2023-01-12T14:25:29.734Z,76.5
2023-01-12T14:26:36.095Z,77
2023-01-12T14:27:42.334Z,75.5
2023-01-12T14:29:54.841Z,76
2023-01-12T14:31:01.105Z,76.5
2023-01-12T14:32:07.346Z,77
2023-01-12T14:33:12.521Z,77
2023-01-12T14:34:18.792Z,76
2023-01-12T14:35:25.160Z,76.5
2023-01-12T14:36:31.330Z,76
2023-01-12T14:37:37.667Z,76.5
2023-01-12T14:38:43.877Z,77
2023-01-12T14:39:50.240Z,77
2023-01-12T14:40:56.415Z,76.5
2023-01-12T14:42:02.703Z,76.5
2023-01-12T14:43:08.975Z,76.5
2023-01-12T14:44:15.232Z,76.5
2023-01-12T14:45:21.584Z,76.5
2023-01-12T14:46:27.836Z,77.5
2023-01-12T14:47:34.095Z,77
2023-01-12T14:48:39.398Z,77.5
2023-01-12T14:49:45.618Z,76.5
2023-01-12T14:50:51.876Z,77
2023-01-12T14:51:58.195Z,77.5
2023-01-12T14:53:04.562Z,76.5
2023-01-12T14:54:10.806Z,77.5
2023-01-12T14:55:16.984Z,77.5
2023-01-12T14:56:23.249Z,76.5
2023-01-12T14:57:29.514Z,77.5
2023-01-12T14:58:35.795Z,77.5
2023-01-12T14:59:42.124Z,77.5
2023-01-12T15:00:48.443Z,78
2023-01-12T15:01:54.698Z,77.5
2023-01-12T15:03:00.002Z,77.5
2023-01-12T15:04:06.222Z,77.5
2023-01-12T15:05:12.485Z,78.5
2023-01-12T15:07:24.978Z,77
2023-01-12T15:08:31.251Z,77
2023-01-12T15:09:37.524Z,77
2023-01-12T15:10:43.809Z,77
2023-01-12T15:11:50.077Z,77
2023-01-12T15:12:56.413Z,77
2023-01-12T15:14:02.693Z,76.5
2023-01-12T15:15:08.880Z,77.5
2023-01-12T15:16:15.163Z,76.5
2023-01-12T15:17:20.468Z,76.5
2023-01-12T15:18:26.750Z,77.5
2023-01-12T15:19:33.035Z,78
2023-01-12T15:20:39.279Z,78
2023-01-12T15:21:45.533Z,76.5
2023-01-12T15:22:51.801Z,76.5
2023-01-12T15:23:58.066Z,77